sensor_id;sensor_type;location;lat;lon;timestamp;temperature;humidity
83102;SHT31;72973;51.784;4.660;2023-12-20T00:00:06;8.37;80.65
83102;SHT31;72973;51.784;4.660;2023-12-20T00:02:32;8.44;80.65
83102;SHT31;72973;51.784;4.660;2023-12-20T00:04:59;8.39;80.49
83102;SHT31;72973;51.784;4.660;2023-12-20T00:07:25;8.34;80.67
83102;SHT31;72973;51.784;4.660;2023-12-20T00:09:52;8.28;80.91
83102;SHT31;72973;51.784;4.660;2023-12-20T00:12:18;8.28;80.73
83102;SHT31;72973;51.784;4.660;2023-12-20T00:14:44;8.26;80.63
83102;SHT31;72973;51.784;4.660;2023-12-20T00:17:11;8.29;80.51
83102;SHT31;72973;51.784;4.660;2023-12-20T00:19:37;8.25;80.48
83102;SHT31;72973;51.784;4.660;2023-12-20T00:22:03;8.23;80.41
83102;SHT31;72973;51.784;4.660;2023-12-20T00:24:30;8.25;80.87
83102;SHT31;72973;51.784;4.660;2023-12-20T00:26:57;8.30;80.64
83102;SHT31;72973;51.784;4.660;2023-12-20T00:29:23;8.36;80.47
83102;SHT31;72973;51.784;4.660;2023-12-20T00:31:49;8.39;80.67
83102;SHT31;72973;51.784;4.660;2023-12-20T00:34:16;8.33;80.72
83102;SHT31;72973;51.784;4.660;2023-12-20T00:36:42;8.40;80.40
83102;SHT31;72973;51.784;4.660;2023-12-20T00:39:08;8.36;80.28
83102;SHT31;72973;51.784;4.660;2023-12-20T00:41:35;8.39;80.57
83102;SHT31;72973;51.784;4.660;2023-12-20T00:44:01;8.40;80.53
83102;SHT31;72973;51.784;4.660;2023-12-20T00:46:29;8.39;80.36
83102;SHT31;72973;51.784;4.660;2023-12-20T00:48:55;8.34;80.67
83102;SHT31;72973;51.784;4.660;2023-12-20T00:51:22;8.34;80.52
83102;SHT31;72973;51.784;4.660;2023-12-20T00:53:50;8.29;80.76
83102;SHT31;72973;51.784;4.660;2023-12-20T00:56:16;8.30;80.86
83102;SHT31;72973;51.784;4.660;2023-12-20T00:58:42;8.33;80.42
83102;SHT31;72973;51.784;4.660;2023-12-20T01:01:09;8.23;80.59
83102;SHT31;72973;51.784;4.660;2023-12-20T01:03:35;8.14;81.09
83102;SHT31;72973;51.784;4.660;2023-12-20T01:06:02;8.10;81.51
83102;SHT31;72973;51.784;4.660;2023-12-20T01:08:30;8.12;81.05
83102;SHT31;72973;51.784;4.660;2023-12-20T01:10:57;8.22;80.81
83102;SHT31;72973;51.784;4.660;2023-12-20T01:13:23;8.19;80.76
83102;SHT31;72973;51.784;4.660;2023-12-20T01:15:50;8.13;80.94
83102;SHT31;72973;51.784;4.660;2023-12-20T01:18:16;8.13;80.89
83102;SHT31;72973;51.784;4.660;2023-12-20T01:20:42;8.12;81.30
83102;SHT31;72973;51.784;4.660;2023-12-20T01:23:09;8.09;81.10
83102;SHT31;72973;51.784;4.660;2023-12-20T01:25:35;8.12;80.96
83102;SHT31;72973;51.784;4.660;2023-12-20T01:28:02;8.16;81.14
83102;SHT31;72973;51.784;4.660;2023-12-20T01:30:29;8.12;81.06
83102;SHT31;72973;51.784;4.660;2023-12-20T01:32:55;8.06;81.29
83102;SHT31;72973;51.784;4.660;2023-12-20T01:35:22;8.13;81.29
83102;SHT31;72973;51.784;4.660;2023-12-20T01:37:48;8.16;81.36
83102;SHT31;72973;51.784;4.660;2023-12-20T01:40:15;8.16;81.51
83102;SHT31;72973;51.784;4.660;2023-12-20T01:42:41;8.14;81.52
83102;SHT31;72973;51.784;4.660;2023-12-20T01:45:08;8.26;81.40
83102;SHT31;72973;51.784;4.660;2023-12-20T01:47:35;8.32;81.11
83102;SHT31;72973;51.784;4.660;2023-12-20T01:50:02;8.32;80.92
83102;SHT31;72973;51.784;4.660;2023-12-20T01:52:30;8.39;80.50
83102;SHT31;72973;51.784;4.660;2023-12-20T01:54:57;8.44;79.90
83102;SHT31;72973;51.784;4.660;2023-12-20T01:57:29;8.53;79.91
83102;SHT31;72973;51.784;4.660;2023-12-20T01:59:56;8.61;79.59
83102;SHT31;72973;51.784;4.660;2023-12-20T02:02:23;8.68;79.25
83102;SHT31;72973;51.784;4.660;2023-12-20T02:04:49;8.78;78.74
83102;SHT31;72973;51.784;4.660;2023-12-20T02:07:18;8.77;78.89
83102;SHT31;72973;51.784;4.660;2023-12-20T02:09:45;8.79;78.96
83102;SHT31;72973;51.784;4.660;2023-12-20T02:12:11;8.79;79.13
83102;SHT31;72973;51.784;4.660;2023-12-20T02:14:37;8.78;79.37
83102;SHT31;72973;51.784;4.660;2023-12-20T02:17:04;8.78;79.37
83102;SHT31;72973;51.784;4.660;2023-12-20T02:19:30;8.78;79.48
83102;SHT31;72973;51.784;4.660;2023-12-20T02:22:06;8.78;79.53
83102;SHT31;72973;51.784;4.660;2023-12-20T02:24:32;8.67;80.20
83102;SHT31;72973;51.784;4.660;2023-12-20T02:26:59;8.70;80.09
83102;SHT31;72973;51.784;4.660;2023-12-20T02:29:26;8.74;80.20
83102;SHT31;72973;51.784;4.660;2023-12-20T02:31:52;8.77;79.91
83102;SHT31;72973;51.784;4.660;2023-12-20T02:34:19;8.81;79.84
83102;SHT31;72973;51.784;4.660;2023-12-20T02:36:45;8.84;79.25
83102;SHT31;72973;51.784;4.660;2023-12-20T02:39:12;8.88;79.03
83102;SHT31;72973;51.784;4.660;2023-12-20T02:41:39;8.87;78.85
83102;SHT31;72973;51.784;4.660;2023-12-20T02:44:05;8.95;78.89
83102;SHT31;72973;51.784;4.660;2023-12-20T02:46:32;9.01;78.83
83102;SHT31;72973;51.784;4.660;2023-12-20T02:48:58;9.09;78.65
83102;SHT31;72973;51.784;4.660;2023-12-20T02:51:25;9.01;78.59
83102;SHT31;72973;51.784;4.660;2023-12-20T02:53:52;9.06;78.45
83102;SHT31;72973;51.784;4.660;2023-12-20T02:56:18;8.98;78.38
83102;SHT31;72973;51.784;4.660;2023-12-20T02:58:44;9.02;78.81
83102;SHT31;72973;51.784;4.660;2023-12-20T03:01:11;9.01;78.74
83102;SHT31;72973;51.784;4.660;2023-12-20T03:03:37;8.98;78.97
83102;SHT31;72973;51.784;4.660;2023-12-20T03:06:04;8.95;79.11
83102;SHT31;72973;51.784;4.660;2023-12-20T03:08:30;8.89;79.32
83102;SHT31;72973;51.784;4.660;2023-12-20T03:10:59;8.92;79.39
83102;SHT31;72973;51.784;4.660;2023-12-20T03:13:25;8.88;79.55
83102;SHT31;72973;51.784;4.660;2023-12-20T03:15:51;8.87;79.69
83102;SHT31;72973;51.784;4.660;2023-12-20T03:18:18;8.85;79.73
83102;SHT31;72973;51.784;4.660;2023-12-20T03:20:44;8.87;79.80
83102;SHT31;72973;51.784;4.660;2023-12-20T03:23:11;8.85;79.82
83102;SHT31;72973;51.784;4.660;2023-12-20T03:25:37;8.95;79.60
83102;SHT31;72973;51.784;4.660;2023-12-20T03:28:04;8.93;79.45
83102;SHT31;72973;51.784;4.660;2023-12-20T03:30:30;8.91;79.28
83102;SHT31;72973;51.784;4.660;2023-12-20T03:32:57;8.93;79.33
83102;SHT31;72973;51.784;4.660;2023-12-20T03:35:23;8.97;79.44
83102;SHT31;72973;51.784;4.660;2023-12-20T03:37:49;8.98;79.13
83102;SHT31;72973;51.784;4.660;2023-12-20T03:40:16;9.01;79.10
83102;SHT31;72973;51.784;4.660;2023-12-20T03:42:42;9.05;78.88
83102;SHT31;72973;51.784;4.660;2023-12-20T03:45:09;8.95;78.83
83102;SHT31;72973;51.784;4.660;2023-12-20T03:47:35;8.92;79.00
83102;SHT31;72973;51.784;4.660;2023-12-20T03:50:02;8.92;78.40
83102;SHT31;72973;51.784;4.660;2023-12-20T03:52:28;8.87;78.53
83102;SHT31;72973;51.784;4.660;2023-12-20T03:54:55;8.87;78.54
83102;SHT31;72973;51.784;4.660;2023-12-20T03:57:21;8.77;78.55
83102;SHT31;72973;51.784;4.660;2023-12-20T03:59:48;8.77;78.57
83102;SHT31;72973;51.784;4.660;2023-12-20T04:02:14;8.67;78.79
83102;SHT31;72973;51.784;4.660;2023-12-20T04:04:40;8.60;78.72
83102;SHT31;72973;51.784;4.660;2023-12-20T04:07:08;8.53;78.94
83102;SHT31;72973;51.784;4.660;2023-12-20T04:09:34;8.51;78.68
83102;SHT31;72973;51.784;4.660;2023-12-20T04:12:01;8.49;78.64
83102;SHT31;72973;51.784;4.660;2023-12-20T04:14:27;8.46;78.74
83102;SHT31;72973;51.784;4.660;2023-12-20T04:16:54;8.41;78.91
83102;SHT31;72973;51.784;4.660;2023-12-20T04:19:21;8.43;78.79
83102;SHT31;72973;51.784;4.660;2023-12-20T04:21:47;8.43;78.90
83102;SHT31;72973;51.784;4.660;2023-12-20T04:24:14;8.41;78.64
83102;SHT31;72973;51.784;4.660;2023-12-20T04:26:40;8.39;78.83
83102;SHT31;72973;51.784;4.660;2023-12-20T04:29:06;8.41;78.95
83102;SHT31;72973;51.784;4.660;2023-12-20T04:31:33;8.44;78.93
83102;SHT31;72973;51.784;4.660;2023-12-20T04:33:59;8.44;78.83
83102;SHT31;72973;51.784;4.660;2023-12-20T04:36:26;8.39;79.04
83102;SHT31;72973;51.784;4.660;2023-12-20T04:38:53;8.39;79.16
83102;SHT31;72973;51.784;4.660;2023-12-20T04:41:20;8.33;79.44
83102;SHT31;72973;51.784;4.660;2023-12-20T04:43:46;8.30;79.61
83102;SHT31;72973;51.784;4.660;2023-12-20T04:46:12;8.25;79.94
83102;SHT31;72973;51.784;4.660;2023-12-20T04:48:39;8.28;80.00
83102;SHT31;72973;51.784;4.660;2023-12-20T04:51:05;8.25;79.92
83102;SHT31;72973;51.784;4.660;2023-12-20T04:53:32;8.26;79.83
83102;SHT31;72973;51.784;4.660;2023-12-20T04:55:58;8.23;79.92
83102;SHT31;72973;51.784;4.660;2023-12-20T04:58:25;8.19;79.97
83102;SHT31;72973;51.784;4.660;2023-12-20T05:00:51;8.22;79.94
83102;SHT31;72973;51.784;4.660;2023-12-20T05:03:18;8.20;79.90
83102;SHT31;72973;51.784;4.660;2023-12-20T05:05:44;8.16;80.14
83102;SHT31;72973;51.784;4.660;2023-12-20T05:08:11;8.20;79.85
83102;SHT31;72973;51.784;4.660;2023-12-20T05:10:37;8.12;79.90
83102;SHT31;72973;51.784;4.660;2023-12-20T05:13:04;8.13;79.76
83102;SHT31;72973;51.784;4.660;2023-12-20T05:15:31;8.19;79.55
83102;SHT31;72973;51.784;4.660;2023-12-20T05:17:57;8.10;79.49
83102;SHT31;72973;51.784;4.660;2023-12-20T05:20:24;8.14;79.49
83102;SHT31;72973;51.784;4.660;2023-12-20T05:22:50;8.03;79.55
83102;SHT31;72973;51.784;4.660;2023-12-20T05:25:16;8.09;79.34
83102;SHT31;72973;51.784;4.660;2023-12-20T05:27:43;8.05;79.33
83102;SHT31;72973;51.784;4.660;2023-12-20T05:30:10;8.07;79.20
83102;SHT31;72973;51.784;4.660;2023-12-20T05:32:36;8.09;79.18
83102;SHT31;72973;51.784;4.660;2023-12-20T05:35:03;8.06;79.07
83102;SHT31;72973;51.784;4.660;2023-12-20T05:37:30;8.07;79.22
83102;SHT31;72973;51.784;4.660;2023-12-20T05:39:56;8.09;79.31
83102;SHT31;72973;51.784;4.660;2023-12-20T05:42:22;8.03;79.18
83102;SHT31;72973;51.784;4.660;2023-12-20T05:44:49;8.12;79.25
83102;SHT31;72973;51.784;4.660;2023-12-20T05:47:15;8.06;79.17
83102;SHT31;72973;51.784;4.660;2023-12-20T05:49:43;8.06;79.32
83102;SHT31;72973;51.784;4.660;2023-12-20T05:52:10;8.10;79.28
83102;SHT31;72973;51.784;4.660;2023-12-20T05:54:36;8.09;79.57
83102;SHT31;72973;51.784;4.660;2023-12-20T05:57:03;8.12;79.70
83102;SHT31;72973;51.784;4.660;2023-12-20T05:59:29;8.06;79.92
83102;SHT31;72973;51.784;4.660;2023-12-20T06:01:55;8.10;79.83
83102;SHT31;72973;51.784;4.660;2023-12-20T06:04:22;8.07;79.98
83102;SHT31;72973;51.784;4.660;2023-12-20T06:06:48;8.09;80.03
83102;SHT31;72973;51.784;4.660;2023-12-20T06:09:15;8.05;80.30
83102;SHT31;72973;51.784;4.660;2023-12-20T06:11:42;8.09;80.32
83102;SHT31;72973;51.784;4.660;2023-12-20T06:14:08;8.14;80.06
83102;SHT31;72973;51.784;4.660;2023-12-20T06:16:35;8.19;80.02
83102;SHT31;72973;51.784;4.660;2023-12-20T06:19:01;8.14;80.18
83102;SHT31;72973;51.784;4.660;2023-12-20T06:21:28;8.22;79.89
83102;SHT31;72973;51.784;4.660;2023-12-20T06:23:55;8.22;79.78
83102;SHT31;72973;51.784;4.660;2023-12-20T06:26:21;8.23;79.69
83102;SHT31;72973;51.784;4.660;2023-12-20T06:28:48;8.25;79.64
83102;SHT31;72973;51.784;4.660;2023-12-20T06:31:14;8.25;79.62
83102;SHT31;72973;51.784;4.660;2023-12-20T06:33:41;8.30;79.48
83102;SHT31;72973;51.784;4.660;2023-12-20T06:36:11;8.43;79.09
83102;SHT31;72973;51.784;4.660;2023-12-20T06:38:37;8.50;78.95
83102;SHT31;72973;51.784;4.660;2023-12-20T06:41:04;8.56;78.74
83102;SHT31;72973;51.784;4.660;2023-12-20T06:43:31;8.64;78.61
83102;SHT31;72973;51.784;4.660;2023-12-20T06:46:00;8.70;78.32
83102;SHT31;72973;51.784;4.660;2023-12-20T06:48:26;8.68;78.38
83102;SHT31;72973;51.784;4.660;2023-12-20T06:50:53;8.63;78.77
83102;SHT31;72973;51.784;4.660;2023-12-20T06:53:20;8.61;78.94
83102;SHT31;72973;51.784;4.660;2023-12-20T06:55:46;8.60;78.81
83102;SHT31;72973;51.784;4.660;2023-12-20T06:58:13;8.67;78.77
83102;SHT31;72973;51.784;4.660;2023-12-20T07:00:39;8.70;78.60
83102;SHT31;72973;51.784;4.660;2023-12-20T07:03:06;8.74;78.44
83102;SHT31;72973;51.784;4.660;2023-12-20T07:05:32;8.74;78.57
83102;SHT31;72973;51.784;4.660;2023-12-20T07:07:59;8.78;78.30
83102;SHT31;72973;51.784;4.660;2023-12-20T07:10:25;8.82;78.28
83102;SHT31;72973;51.784;4.660;2023-12-20T07:12:52;8.79;78.29
83102;SHT31;72973;51.784;4.660;2023-12-20T07:15:21;8.81;78.45
83102;SHT31;72973;51.784;4.660;2023-12-20T07:17:48;8.74;78.55
83102;SHT31;72973;51.784;4.660;2023-12-20T07:20:14;8.75;78.60
83102;SHT31;72973;51.784;4.660;2023-12-20T07:22:41;8.71;78.63
83102;SHT31;72973;51.784;4.660;2023-12-20T07:25:08;8.68;78.89
83102;SHT31;72973;51.784;4.660;2023-12-20T07:27:34;8.61;79.03
83102;SHT31;72973;51.784;4.660;2023-12-20T07:30:01;8.57;79.24
83102;SHT31;72973;51.784;4.660;2023-12-20T07:32:28;8.51;79.37
83102;SHT31;72973;51.784;4.660;2023-12-20T07:34:55;8.44;79.56
83102;SHT31;72973;51.784;4.660;2023-12-20T07:37:21;8.50;79.44
83102;SHT31;72973;51.784;4.660;2023-12-20T07:39:48;8.54;79.48
83102;SHT31;72973;51.784;4.660;2023-12-20T07:42:14;8.53;79.37
83102;SHT31;72973;51.784;4.660;2023-12-20T07:44:41;8.46;79.40
83102;SHT31;72973;51.784;4.660;2023-12-20T07:47:08;8.40;79.83
83102;SHT31;72973;51.784;4.660;2023-12-20T07:49:34;8.29;80.07
83102;SHT31;72973;51.784;4.660;2023-12-20T07:52:01;8.32;80.07
83102;SHT31;72973;51.784;4.660;2023-12-20T07:54:27;8.25;80.31
83102;SHT31;72973;51.784;4.660;2023-12-20T07:56:53;8.26;80.32
83102;SHT31;72973;51.784;4.660;2023-12-20T07:59:20;8.29;80.16
83102;SHT31;72973;51.784;4.660;2023-12-20T08:01:46;8.25;80.30
83102;SHT31;72973;51.784;4.660;2023-12-20T08:04:13;8.23;80.31
83102;SHT31;72973;51.784;4.660;2023-12-20T08:06:39;8.25;80.36
83102;SHT31;72973;51.784;4.660;2023-12-20T08:09:05;8.34;80.26
83102;SHT31;72973;51.784;4.660;2023-12-20T08:11:32;8.29;80.51
83102;SHT31;72973;51.784;4.660;2023-12-20T08:13:58;8.39;80.31
83102;SHT31;72973;51.784;4.660;2023-12-20T08:16:25;8.53;80.06
83102;SHT31;72973;51.784;4.660;2023-12-20T08:18:52;8.64;79.77
83102;SHT31;72973;51.784;4.660;2023-12-20T08:21:18;8.63;79.81
83102;SHT31;72973;51.784;4.660;2023-12-20T08:23:46;8.71;79.68
83102;SHT31;72973;51.784;4.660;2023-12-20T08:26:13;8.79;79.30
83102;SHT31;72973;51.784;4.660;2023-12-20T08:28:40;8.89;79.11
83102;SHT31;72973;51.784;4.660;2023-12-20T08:31:13;8.91;79.07
83102;SHT31;72973;51.784;4.660;2023-12-20T08:33:40;8.97;79.29
83102;SHT31;72973;51.784;4.660;2023-12-20T08:36:07;8.95;79.10
83102;SHT31;72973;51.784;4.660;2023-12-20T08:38:33;8.95;79.21
83102;SHT31;72973;51.784;4.660;2023-12-20T08:41:00;8.98;79.17
83102;SHT31;72973;51.784;4.660;2023-12-20T08:43:27;8.97;79.31
83102;SHT31;72973;51.784;4.660;2023-12-20T08:45:54;8.99;79.42
83102;SHT31;72973;51.784;4.660;2023-12-20T08:48:20;9.12;79.23
83102;SHT31;72973;51.784;4.660;2023-12-20T08:50:46;9.26;78.66
83102;SHT31;72973;51.784;4.660;2023-12-20T08:53:14;9.18;78.91
83102;SHT31;72973;51.784;4.660;2023-12-20T08:55:42;9.20;78.91
83102;SHT31;72973;51.784;4.660;2023-12-20T08:58:09;9.26;78.73
83102;SHT31;72973;51.784;4.660;2023-12-20T09:00:35;9.27;78.52
83102;SHT31;72973;51.784;4.660;2023-12-20T09:03:02;9.39;78.51
83102;SHT31;72973;51.784;4.660;2023-12-20T09:05:29;9.35;78.61
83102;SHT31;72973;51.784;4.660;2023-12-20T09:07:56;9.40;78.80
83102;SHT31;72973;51.784;4.660;2023-12-20T09:10:22;9.39;78.82
83102;SHT31;72973;51.784;4.660;2023-12-20T09:12:53;9.42;78.80
83102;SHT31;72973;51.784;4.660;2023-12-20T09:15:24;9.42;78.96
83102;SHT31;72973;51.784;4.660;2023-12-20T09:17:51;9.44;79.15
83102;SHT31;72973;51.784;4.660;2023-12-20T09:20:18;9.47;79.05
83102;SHT31;72973;51.784;4.660;2023-12-20T09:22:44;9.53;78.95
83102;SHT31;72973;51.784;4.660;2023-12-20T09:25:11;9.60;78.79
83102;SHT31;72973;51.784;4.660;2023-12-20T09:27:39;9.66;78.67
83102;SHT31;72973;51.784;4.660;2023-12-20T09:30:05;9.71;78.57
83102;SHT31;72973;51.784;4.660;2023-12-20T09:32:32;9.77;78.21
83102;SHT31;72973;51.784;4.660;2023-12-20T09:34:59;9.85;78.15
83102;SHT31;72973;51.784;4.660;2023-12-20T09:37:27;9.88;77.67
83102;SHT31;72973;51.784;4.660;2023-12-20T09:39:54;9.85;77.80
83102;SHT31;72973;51.784;4.660;2023-12-20T09:42:57;9.87;77.75
83102;SHT31;72973;51.784;4.660;2023-12-20T09:45:24;9.78;77.83
83102;SHT31;72973;51.784;4.660;2023-12-20T09:47:53;9.81;77.73
83102;SHT31;72973;51.784;4.660;2023-12-20T09:50:21;9.84;77.73
83102;SHT31;72973;51.784;4.660;2023-12-20T09:52:50;9.85;77.64
83102;SHT31;72973;51.784;4.660;2023-12-20T09:55:18;9.88;77.75
83102;SHT31;72973;51.784;4.660;2023-12-20T09:57:46;9.93;77.75
83102;SHT31;72973;51.784;4.660;2023-12-20T10:00:14;9.90;77.75
83102;SHT31;72973;51.784;4.660;2023-12-20T10:03:00;9.97;77.81
83102;SHT31;72973;51.784;4.660;2023-12-20T10:05:29;10.02;77.43
83102;SHT31;72973;51.784;4.660;2023-12-20T10:07:56;10.04;77.67
83102;SHT31;72973;51.784;4.660;2023-12-20T10:10:23;10.04;77.91
83102;SHT31;72973;51.784;4.660;2023-12-20T10:13:10;10.12;77.59
83102;SHT31;72973;51.784;4.660;2023-12-20T10:15:37;10.16;77.31
83102;SHT31;72973;51.784;4.660;2023-12-20T10:18:04;10.15;77.41
83102;SHT31;72973;51.784;4.660;2023-12-20T10:20:31;10.15;77.18
83102;SHT31;72973;51.784;4.660;2023-12-20T10:22:59;10.09;77.64
83102;SHT31;72973;51.784;4.660;2023-12-20T10:25:26;10.22;77.52
83102;SHT31;72973;51.784;4.660;2023-12-20T10:30:35;10.35;77.23
83102;SHT31;72973;51.784;4.660;2023-12-20T10:33:02;10.21;77.38
83102;SHT31;72973;51.784;4.660;2023-12-20T10:35:29;10.19;77.58
83102;SHT31;72973;51.784;4.660;2023-12-20T10:37:56;10.16;77.60
83102;SHT31;72973;51.784;4.660;2023-12-20T10:40:26;10.26;77.79
83102;SHT31;72973;51.784;4.660;2023-12-20T10:42:55;10.29;77.58
83102;SHT31;72973;51.784;4.660;2023-12-20T10:45:23;10.23;77.80
83102;SHT31;72973;51.784;4.660;2023-12-20T10:47:50;10.26;77.74
83102;SHT31;72973;51.784;4.660;2023-12-20T10:50:19;10.32;77.70
83102;SHT31;72973;51.784;4.660;2023-12-20T10:52:50;10.39;77.70
83102;SHT31;72973;51.784;4.660;2023-12-20T10:55:22;10.45;77.69
83102;SHT31;72973;51.784;4.660;2023-12-20T10:57:54;10.46;77.59
83102;SHT31;72973;51.784;4.660;2023-12-20T11:00:29;10.50;77.41
83102;SHT31;72973;51.784;4.660;2023-12-20T11:03:00;10.50;77.48
83102;SHT31;72973;51.784;4.660;2023-12-20T11:05:41;10.55;77.63
83102;SHT31;72973;51.784;4.660;2023-12-20T11:08:17;10.52;77.24
83102;SHT31;72973;51.784;4.660;2023-12-20T11:11:04;10.43;77.66
83102;SHT31;72973;51.784;4.660;2023-12-20T11:13:36;10.55;77.64
83102;SHT31;72973;51.784;4.660;2023-12-20T11:16:04;10.52;77.28
83102;SHT31;72973;51.784;4.660;2023-12-20T11:18:31;10.59;77.24
83102;SHT31;72973;51.784;4.660;2023-12-20T11:21:04;10.67;77.19
83102;SHT31;72973;51.784;4.660;2023-12-20T11:23:32;10.71;76.99
83102;SHT31;72973;51.784;4.660;2023-12-20T11:26:03;10.73;76.65
83102;SHT31;72973;51.784;4.660;2023-12-20T11:28:30;10.69;77.05
83102;SHT31;72973;51.784;4.660;2023-12-20T11:30:58;10.79;77.08
83102;SHT31;72973;51.784;4.660;2023-12-20T11:33:38;10.71;76.62
83102;SHT31;72973;51.784;4.660;2023-12-20T11:36:13;10.71;76.84
83102;SHT31;72973;51.784;4.660;2023-12-20T11:39:01;10.79;76.90
83102;SHT31;72973;51.784;4.660;2023-12-20T11:41:36;10.76;76.51
83102;SHT31;72973;51.784;4.660;2023-12-20T11:44:04;10.79;76.56
83102;SHT31;72973;51.784;4.660;2023-12-20T11:46:31;10.94;76.22
83102;SHT31;72973;51.784;4.660;2023-12-20T11:48:58;11.03;75.90
83102;SHT31;72973;51.784;4.660;2023-12-20T11:51:27;11.17;75.16
83102;SHT31;72973;51.784;4.660;2023-12-20T11:53:53;11.34;75.15
83102;SHT31;72973;51.784;4.660;2023-12-20T11:56:20;11.38;74.88
83102;SHT31;72973;51.784;4.660;2023-12-20T11:58:47;11.27;74.88
83102;SHT31;72973;51.784;4.660;2023-12-20T12:01:15;11.14;75.15
83102;SHT31;72973;51.784;4.660;2023-12-20T12:03:41;11.19;75.35
83102;SHT31;72973;51.784;4.660;2023-12-20T12:06:09;11.11;75.40
83102;SHT31;72973;51.784;4.660;2023-12-20T12:08:35;11.21;75.09
83102;SHT31;72973;51.784;4.660;2023-12-20T12:11:02;11.08;75.55
83102;SHT31;72973;51.784;4.660;2023-12-20T12:13:30;11.21;75.26
83102;SHT31;72973;51.784;4.660;2023-12-20T12:15:56;11.21;75.54
83102;SHT31;72973;51.784;4.660;2023-12-20T12:18:23;11.24;75.57
83102;SHT31;72973;51.784;4.660;2023-12-20T12:20:50;11.27;75.37
83102;SHT31;72973;51.784;4.660;2023-12-20T12:23:23;11.35;75.41
83102;SHT31;72973;51.784;4.660;2023-12-20T12:25:52;11.32;75.22
83102;SHT31;72973;51.784;4.660;2023-12-20T12:28:19;11.17;75.88
83102;SHT31;72973;51.784;4.660;2023-12-20T12:30:58;11.19;75.99
83102;SHT31;72973;51.784;4.660;2023-12-20T12:33:25;11.18;76.28
83102;SHT31;72973;51.784;4.660;2023-12-20T12:35:52;11.00;76.53
83102;SHT31;72973;51.784;4.660;2023-12-20T12:38:24;11.03;76.62
83102;SHT31;72973;51.784;4.660;2023-12-20T12:40:51;11.01;76.23
83102;SHT31;72973;51.784;4.660;2023-12-20T12:43:19;10.94;76.59
83102;SHT31;72973;51.784;4.660;2023-12-20T12:45:46;11.03;76.47
83102;SHT31;72973;51.784;4.660;2023-12-20T12:48:12;11.04;76.31
83102;SHT31;72973;51.784;4.660;2023-12-20T12:50:39;10.94;76.16
83102;SHT31;72973;51.784;4.660;2023-12-20T12:53:06;11.01;76.23
83102;SHT31;72973;51.784;4.660;2023-12-20T12:55:34;10.97;76.69
83102;SHT31;72973;51.784;4.660;2023-12-20T12:58:01;10.93;76.51
83102;SHT31;72973;51.784;4.660;2023-12-20T13:00:27;10.81;76.84
83102;SHT31;72973;51.784;4.660;2023-12-20T13:02:54;10.91;76.97
83102;SHT31;72973;51.784;4.660;2023-12-20T13:05:20;10.83;76.92
83102;SHT31;72973;51.784;4.660;2023-12-20T13:07:47;10.79;76.92
83102;SHT31;72973;51.784;4.660;2023-12-20T13:10:14;10.81;76.98
83102;SHT31;72973;51.784;4.660;2023-12-20T13:12:43;10.77;77.06
83102;SHT31;72973;51.784;4.660;2023-12-20T13:15:09;10.66;77.46
83102;SHT31;72973;51.784;4.660;2023-12-20T13:17:36;10.76;77.53
83102;SHT31;72973;51.784;4.660;2023-12-20T13:20:03;10.81;77.28
83102;SHT31;72973;51.784;4.660;2023-12-20T13:22:30;10.81;77.11
83102;SHT31;72973;51.784;4.660;2023-12-20T13:24:56;10.73;77.36
83102;SHT31;72973;51.784;4.660;2023-12-20T13:27:26;10.77;77.33
83102;SHT31;72973;51.784;4.660;2023-12-20T13:29:52;10.83;77.40
83102;SHT31;72973;51.784;4.660;2023-12-20T13:32:19;10.76;77.31
83102;SHT31;72973;51.784;4.660;2023-12-20T13:34:46;10.77;77.62
83102;SHT31;72973;51.784;4.660;2023-12-20T13:37:14;10.64;77.46
83102;SHT31;72973;51.784;4.660;2023-12-20T13:39:40;10.66;77.77
83102;SHT31;72973;51.784;4.660;2023-12-20T13:42:07;10.56;77.79
83102;SHT31;72973;51.784;4.660;2023-12-20T13:44:34;10.59;77.89
83102;SHT31;72973;51.784;4.660;2023-12-20T13:47:00;10.59;77.65
83102;SHT31;72973;51.784;4.660;2023-12-20T13:49:27;10.71;77.32
83102;SHT31;72973;51.784;4.660;2023-12-20T13:51:54;10.74;76.94
83102;SHT31;72973;51.784;4.660;2023-12-20T13:54:24;10.64;77.01
83102;SHT31;72973;51.784;4.660;2023-12-20T13:56:51;10.73;77.23
83102;SHT31;72973;51.784;4.660;2023-12-20T13:59:17;10.63;77.00
83102;SHT31;72973;51.784;4.660;2023-12-20T14:01:44;10.61;77.07
83102;SHT31;72973;51.784;4.660;2023-12-20T14:04:10;10.57;77.24
83102;SHT31;72973;51.784;4.660;2023-12-20T14:06:37;10.50;77.47
83102;SHT31;72973;51.784;4.660;2023-12-20T14:09:04;10.52;77.83
83102;SHT31;72973;51.784;4.660;2023-12-20T14:11:30;10.45;77.98
83102;SHT31;72973;51.784;4.660;2023-12-20T14:13:57;10.48;78.28
83102;SHT31;72973;51.784;4.660;2023-12-20T14:16:24;10.36;78.25
83102;SHT31;72973;51.784;4.660;2023-12-20T14:18:51;10.41;78.21
83102;SHT31;72973;51.784;4.660;2023-12-20T14:21:23;10.46;78.01
83102;SHT31;72973;51.784;4.660;2023-12-20T14:23:50;10.41;77.90
83102;SHT31;72973;51.784;4.660;2023-12-20T14:26:18;10.38;77.92
83102;SHT31;72973;51.784;4.660;2023-12-20T14:28:44;10.41;77.95
83102;SHT31;72973;51.784;4.660;2023-12-20T14:31:11;10.42;77.79
83102;SHT31;72973;51.784;4.660;2023-12-20T14:33:38;10.38;78.04
83102;SHT31;72973;51.784;4.660;2023-12-20T14:36:05;10.25;78.23
83102;SHT31;72973;51.784;4.660;2023-12-20T14:38:32;10.33;78.23
83102;SHT31;72973;51.784;4.660;2023-12-20T14:40:58;10.38;78.04
83102;SHT31;72973;51.784;4.660;2023-12-20T14:43:26;10.35;78.24
83102;SHT31;72973;51.784;4.660;2023-12-20T14:45:52;10.41;78.17
83102;SHT31;72973;51.784;4.660;2023-12-20T14:48:19;10.45;78.14
83102;SHT31;72973;51.784;4.660;2023-12-20T14:50:47;10.39;78.34
83102;SHT31;72973;51.784;4.660;2023-12-20T14:53:15;10.43;78.38
83102;SHT31;72973;51.784;4.660;2023-12-20T14:55:42;10.45;78.34
83102;SHT31;72973;51.784;4.660;2023-12-20T14:58:09;10.41;78.42
83102;SHT31;72973;51.784;4.660;2023-12-20T15:00:35;10.42;78.60
83102;SHT31;72973;51.784;4.660;2023-12-20T15:03:02;10.45;78.73
83102;SHT31;72973;51.784;4.660;2023-12-20T15:05:31;10.41;78.85
83102;SHT31;72973;51.784;4.660;2023-12-20T15:07:57;10.29;79.23
83102;SHT31;72973;51.784;4.660;2023-12-20T15:10:24;10.29;79.54
83102;SHT31;72973;51.784;4.660;2023-12-20T15:12:51;10.36;79.66
83102;SHT31;72973;51.784;4.660;2023-12-20T15:15:17;10.33;79.63
83102;SHT31;72973;51.784;4.660;2023-12-20T15:17:44;10.21;80.24
83102;SHT31;72973;51.784;4.660;2023-12-20T15:20:11;10.22;80.31
83102;SHT31;72973;51.784;4.660;2023-12-20T15:22:38;10.09;80.74
83102;SHT31;72973;51.784;4.660;2023-12-20T15:25:07;10.15;81.02
83102;SHT31;72973;51.784;4.660;2023-12-20T15:27:35;10.16;80.98
83102;SHT31;72973;51.784;4.660;2023-12-20T15:30:05;10.09;81.25
83102;SHT31;72973;51.784;4.660;2023-12-20T15:32:33;10.09;81.63
83102;SHT31;72973;51.784;4.660;2023-12-20T15:35:00;10.05;81.66
83102;SHT31;72973;51.784;4.660;2023-12-20T15:37:26;9.99;81.90
83102;SHT31;72973;51.784;4.660;2023-12-20T15:39:53;9.97;82.14
83102;SHT31;72973;51.784;4.660;2023-12-20T15:42:20;9.94;82.14